Time;durP1;ratioP1;P1;durP2;ratioP2;P2;SDS_P1;SDS_P2;PMS_P1;PMS_P2;Temp;Humidity;BMP_temperature;BMP_pressure;BME280_temperature;BME280_humidity;BME280_pressure;Samples;Min_cycle;Max_cycle;Signal;HPM_P1;HPM_P2
2022/09/04 00:00:50;;;;;;;6.25;0.90;;;;;;;13.07;100.00;99258.41;4982145;28;20038;-82
2022/09/04 00:03:38;;;;;;;6.32;1.00;;;;;;;13.08;100.00;99256.56;4985197;28;20060;-80
2022/09/04 00:06:11;;;;;;;1.52;0.80;;;;;;;13.08;100.00;99257.41;4950168;28;20037;-81
2022/09/04 00:09:01;;;;;;;3.17;1.10;;;;;;;13.14;100.00;99261.09;4998604;28;20038;-82
2022/09/04 00:11:30;;;;;;;3.45;1.00;;;;;;;13.08;100.00;99248.59;5001336;28;20038;-81
2022/09/04 00:14:04;;;;;;;3.65;0.93;;;;;;;13.11;100.00;99246.41;5003073;28;20030;-81
2022/09/04 00:17:02;;;;;;;2.20;0.80;;;;;;;13.13;100.00;99241.72;4984802;28;20366;-80
2022/09/04 00:19:34;;;;;;;3.53;0.93;;;;;;;13.16;100.00;99259.09;5012696;28;20042;-81
2022/09/04 00:22:19;;;;;;;4.97;0.90;;;;;;;13.17;100.00;99247.47;4953888;28;20034;-81
2022/09/04 00:24:56;;;;;;;2.75;1.17;;;;;;;13.13;100.00;99236.44;5020844;28;20030;-81
2022/09/04 00:27:26;;;;;;;3.38;1.20;;;;;;;13.12;100.00;99234.75;4969505;28;20395;-81
2022/09/04 00:30:10;;;;;;;7.53;1.38;;;;;;;13.10;100.00;99220.88;4990102;28;20033;-81
2022/09/04 00:32:54;;;;;;;4.65;0.88;;;;;;;13.02;100.00;99216.53;4955640;28;20041;-83
2022/09/04 00:35:45;;;;;;;9.30;1.20;;;;;;;13.00;100.00;99207.94;4987018;28;20044;-83
2022/09/04 00:38:16;;;;;;;4.47;1.30;;;;;;;13.05;100.00;99201.25;5015104;28;20026;-81
2022/09/04 00:40:42;;;;;;;3.95;1.25;;;;;;;13.03;100.00;99201.44;4990505;28;20135;-80
2022/09/04 00:43:43;;;;;;;5.40;1.20;;;;;;;13.02;100.00;99190.03;4969020;28;20564;-80
2022/09/04 00:46:27;;;;;;;4.88;1.60;;;;;;;13.00;100.00;99185.91;5019559;28;20046;-79
2022/09/04 00:49:19;;;;;;;7.28;1.58;;;;;;;13.02;100.00;99187.38;5022945;28;20049;-78
2022/09/04 00:52:00;;;;;;;6.05;1.50;;;;;;;13.03;100.00;99186.34;4956324;28;20050;-79
2022/09/04 00:54:32;;;;;;;3.22;1.50;;;;;;;13.01;100.00;99192.88;4998248;28;20030;-79
2022/09/04 00:57:35;;;;;;;7.88;2.90;;;;;;;13.03;100.00;99183.69;4992753;28;20042;-80
2022/09/04 01:00:16;;;;;;;5.55;1.58;;;;;;;13.06;100.00;99185.13;4999031;28;20087;-79
2022/09/04 01:02:42;;;;;;;5.40;1.63;;;;;;;13.09;100.00;99189.25;4982259;28;20038;-79
2022/09/04 01:05:38;;;;;;;6.30;1.63;;;;;;;13.13;100.00;99185.19;4988002;28;20622;-79
2022/09/04 01:08:33;;;;;;;7.25;1.80;;;;;;;13.13;100.00;99174.56;5007521;28;20050;-79
2022/09/04 01:11:17;;;;;;;5.20;1.58;;;;;;;13.12;100.00;99188.88;4975586;28;20393;-79
2022/09/04 01:13:47;;;;;;;6.25;1.90;;;;;;;13.14;100.00;99202.75;5003182;28;20085;-79
2022/09/04 01:16:25;;;;;;;6.68;1.92;;;;;;;13.17;100.00;99198.91;4979563;28;20120;-79
2022/09/04 01:19:01;;;;;;;6.57;1.80;;;;;;;13.17;100.00;99204.19;5006940;28;20045;-79
2022/09/04 01:21:54;;;;;;;5.90;1.70;;;;;;;13.18;100.00;99192.56;4994654;28;20085;-79
2022/09/04 01:24:41;;;;;;;3.22;1.77;;;;;;;13.21;100.00;99189.53;4989357;28;20076;-79
2022/09/04 01:27:40;;;;;;;2.85;1.60;;;;;;;13.22;100.00;99183.22;4990272;28;20400;-80
2022/09/04 01:30:10;;;;;;;4.40;1.63;;;;;;;13.21;100.00;99193.00;4996894;28;20428;-80
2022/09/04 01:33:12;;;;;;;3.97;1.83;;;;;;;13.27;100.00;99200.19;4989816;28;20109;-79
2022/09/04 01:36:01;;;;;;;6.90;1.88;;;;;;;13.32;100.00;99190.81;4984715;28;20405;-80
2022/09/04 01:38:33;;;;;;;2.30;1.30;;;;;;;13.35;100.00;99191.28;4971900;28;20565;-79
2022/09/04 01:41:25;;;;;;;2.58;1.60;;;;;;;13.35;100.00;99185.97;4973457;28;20031;-79
2022/09/04 01:43:50;;;;;;;2.42;1.48;;;;;;;13.32;100.00;99170.44;4997027;28;20046;-79
2022/09/04 01:46:43;;;;;;;5.40;1.77;;;;;;;13.33;100.00;99171.25;5001962;28;20033;-80
2022/09/04 01:49:15;;;;;;;6.93;1.88;;;;;;;13.33;100.00;99155.34;5007768;28;20038;-79
2022/09/04 01:51:50;;;;;;;2.28;1.77;;;;;;;13.36;100.00;99146.97;4962600;28;20393;-80
2022/09/04 01:55:04;;;;;;;6.57;1.87;;;;;;;13.33;100.00;99139.41;4986035;28;20568;-80
2022/09/04 01:57:49;;;;;;;5.82;2.03;;;;;;;13.33;100.00;99139.41;4978013;28;20034;-80
2022/09/04 02:00:22;;;;;;;6.65;2.13;;;;;;;13.35;100.00;99132.06;5004968;28;20033;-78
2022/09/04 02:03:12;;;;;;;2.65;1.60;;;;;;;13.32;100.00;99133.28;5002681;28;20115;-79
2022/09/04 02:05:47;;;;;;;7.97;2.10;;;;;;;13.30;100.00;99123.88;5011177;28;20034;-81
2022/09/04 02:08:25;;;;;;;3.27;2.00;;;;;;;13.29;100.00;99131.00;4984344;28;20069;-80
2022/09/04 02:11:00;;;;;;;3.13;2.08;;;;;;;13.30;100.00;99126.53;5016417;28;20042;-81
2022/09/04 02:13:52;;;;;;;3.70;2.13;;;;;;;13.24;100.00;99120.16;4968312;28;20703;-80
2022/09/04 02:16:41;;;;;;;5.05;2.45;;;;;;;13.23;100.00;99118.53;4996956;28;20034;-80
2022/09/04 02:19:22;;;;;;;4.75;2.47;;;;;;;13.24;100.00;99114.84;4973796;28;20902;-81
2022/09/04 02:22:11;;;;;;;7.65;2.45;;;;;;;13.23;100.00;99126.50;4976591;28;20125;-80
2022/09/04 02:25:15;;;;;;;7.38;2.25;;;;;;;13.19;100.00;99115.44;5005641;28;20041;-80
2022/09/04 02:27:47;;;;;;;5.70;1.95;;;;;;;13.23;100.00;99114.06;4969989;28;20034;-80
2022/09/04 02:30:17;;;;;;;4.25;1.63;;;;;;;13.26;100.00;99123.44;4978800;28;20113;-80
2022/09/04 02:33:21;;;;;;;3.22;1.80;;;;;;;13.21;100.00;99115.25;4979406;28;20048;-81
2022/09/04 02:35:58;;;;;;;2.58;1.08;;;;;;;13.17;100.00;99114.81;5001681;28;20042;-80
2022/09/04 02:38:41;;;;;;;1.42;1.00;;;;;;;13.11;100.00;99121.72;4995081;28;20038;-80
2022/09/04 02:41:32;;;;;;;0.80;0.32;;;;;;;13.09;100.00;99112.31;4971339;28;20034;-80
2022/09/04 02:44:20;;;;;;;2.63;0.77;;;;;;;13.03;100.00;99105.94;4972402;28;20093;-79
2022/09/04 02:47:13;;;;;;;2.13;0.40;;;;;;;12.97;100.00;99112.84;4985191;28;20034;-81
2022/09/04 02:49:59;;;;;;;2.47;0.50;;;;;;;12.97;100.00;99093.44;5009459;28;20574;-79
2022/09/04 02:53:02;;;;;;;1.02;0.50;;;;;;;12.98;100.00;99082.66;4989729;28;20059;-80
2022/09/04 02:55:47;;;;;;;1.15;0.50;;;;;;;13.02;100.00;99089.22;4977084;28;20492;-80
2022/09/04 02:58:46;;;;;;;4.60;0.90;;;;;;;13.07;100.00;99066.59;4985929;28;20395;-79
2022/09/04 03:01:31;;;;;;;0.52;0.30;;;;;;;13.07;100.00;99066.59;4977508;28;20104;-80
2022/09/04 03:04:11;;;;;;;1.70;0.70;;;;;;;13.08;100.00;99063.75;4997419;28;20105;-80
2022/09/04 03:07:16;;;;;;;1.23;0.50;;;;;;;13.09;100.00;99073.34;4974327;28;20034;-79
2022/09/04 03:10:13;;;;;;;2.65;0.70;;;;;;;13.15;100.00;99058.47;4955478;28;20046;-80
2022/09/04 03:12:46;;;;;;;2.97;0.50;;;;;;;13.16;100.00;99065.41;4996287;28;20034;-79
2022/09/04 03:15:30;;;;;;;2.83;0.40;;;;;;;13.17;100.00;99060.94;5011217;28;20555;-80
2022/09/04 03:18:04;;;;;;;1.17;0.30;;;;;;;13.17;100.00;99048.47;4983361;28;20392;-80
2022/09/04 03:20:41;;;;;;;0.93;0.40;;;;;;;13.13;100.00;99042.75;4984316;28;20042;-79
2022/09/04 03:23:29;;;;;;;4.28;0.57;;;;;;;13.10;100.00;99032.53;4993936;28;20038;-79
2022/09/04 03:26:20;;;;;;;0.70;0.30;;;;;;;13.10;100.00;99037.84;4991655;28;20040;-80
2022/09/04 03:28:59;;;;;;;1.02;0.50;;;;;;;13.09;100.00;99022.13;5019524;28;20578;-80
2022/09/04 03:31:46;;;;;;;1.08;0.38;;;;;;;13.03;100.00;99013.94;4977017;28;20034;-81
2022/09/04 03:34:31;;;;;;;0.52;0.30;;;;;;;13.00;100.00;99005.53;4951853;28;20051;-80
2022/09/04 03:37:20;;;;;;;3.22;1.38;;;;;;;12.96;100.00;99007.78;5018683;28;20076;-79
2022/09/04 03:40:25;;;;;;;1.05;0.40;;;;;;;12.93;100.00;99012.66;4981205;28;20160;-80
2022/09/04 03:42:57;;;;;;;2.35;0.43;;;;;;;12.90;100.00;99027.94;5018627;28;20033;-81
2022/09/04 03:45:26;;;;;;;1.23;0.47;;;;;;;12.90;100.00;99043.00;5007647;28;20049;-81
2022/09/04 03:48:29;;;;;;;0.70;0.22;;;;;;;12.80;100.00;99047.84;4991221;28;20056;-81
2022/09/04 03:51:27;;;;;;;0.95;0.28;;;;;;;12.64;100.00;99050.63;4976066;28;20101;-80
2022/09/04 03:54:27;;;;;;;3.40;0.43;;;;;;;12.51;100.00;99050.50;4992616;28;20455;-81
2022/09/04 03:57:17;;;;;;;4.45;0.40;;;;;;;12.35;100.00;99044.47;4986962;28;20038;-82
2022/09/04 04:00:09;;;;;;;1.20;0.30;;;;;;;12.26;100.00;99040.31;4946628;28;20038;-79
2022/09/04 04:02:59;;;;;;;2.10;0.32;;;;;;;12.11;100.00;99041.19;4964616;28;20046;-80
2022/09/04 04:05:39;;;;;;;1.13;0.17;;;;;;;11.96;100.00;99024.53;5000015;28;20097;-80
2022/09/04 04:08:29;;;;;;;1.55;0.20;;;;;;;11.77;100.00;98981.75;4978818;28;20057;-81
2022/09/04 04:11:10;;;;;;;1.08;0.30;;;;;;;11.60;100.00;98960.84;5008164;28;20034;-81
2022/09/04 04:14:24;;;;;;;1.50;0.20;;;;;;;11.58;100.00;98999.09;4995631;28;20042;-81
2022/09/04 04:17:19;;;;;;;0.10;0.10;;;;;;;11.71;100.00;99014.28;4951221;28;20038;-80
2022/09/04 04:20:04;;;;;;;0.30;0.20;;;;;;;11.82;100.00;99036.81;4973779;28;20046;-80
2022/09/04 04:22:46;;;;;;;3.75;0.50;;;;;;;11.91;100.00;99035.69;4990150;28;20042;-79
2022/09/04 04:25:58;;;;;;;2.50;0.17;;;;;;;11.96;100.00;99037.75;4970172;28;20069;-79
2022/09/04 04:28:44;;;;;;;0.30;0.20;;;;;;;11.98;100.00;99054.25;5002482;28;20041;-80
2022/09/04 04:31:33;;;;;;;0.57;0.20;;;;;;;11.87;100.00;99069.66;4976090;28;20110;-80
2022/09/04 04:34:15;;;;;;;0.47;0.40;;;;;;;11.87;100.00;99080.25;5012843;28;20041;-81
2022/09/04 04:36:52;;;;;;;3.38;0.20;;;;;;;11.93;100.00;99093.75;4949140;28;20046;-79
2022/09/04 04:39:20;;;;;;;0.73;0.20;;;;;;;11.98;100.00;99110.69;5019603;28;20057;-80
2022/09/04 04:42:05;;;;;;;2.05;0.25;;;;;;;12.04;100.00;99123.19;4999235;28;20053;-79
2022/09/04 04:48:06;;;;;;;0.30;0.10;;;;;;;12.14;100.00;99167.13;4982678;28;20038;-81
2022/09/04 04:50:55;;;;;;;0.40;0.20;;;;;;;12.19;100.00;99177.16;4991848;28;20497;-80
2022/09/04 04:53:41;;;;;;;0.90;0.32;;;;;;;12.18;100.00;99184.31;5009690;28;20049;-79
2022/09/04 04:56:13;;;;;;;0.93;0.40;;;;;;;12.20;100.00;99198.16;4976468;28;20116;-80
2022/09/04 04:59:08;;;;;;;9.95;0.70;;;;;;;12.21;100.00;99212.25;4998671;28;20129;-79
2022/09/04 05:02:06;;;;;;;1.08;0.38;;;;;;;12.25;100.00;99226.75;5010692;28;20030;-79
2022/09/04 05:04:52;;;;;;;3.33;0.40;;;;;;;12.21;100.00;99239.56;4980745;28;20038;-80
2022/09/04 05:07:41;;;;;;;1.95;0.55;;;;;;;12.21;100.00;99247.50;4986402;28;20054;-79
2022/09/04 05:10:13;;;;;;;3.70;0.65;;;;;;;12.15;100.00;99249.06;5029465;28;20038;-78
2022/09/04 05:13:16;;;;;;;4.15;0.60;;;;;;;12.12;100.00;99260.03;4992040;28;20033;-78
2022/09/04 05:16:14;;;;;;;1.55;0.40;;;;;;;12.06;100.00;99270.50;4976417;28;20041;-77
2022/09/04 05:19:07;;;;;;;0.60;0.30;;;;;;;11.97;100.00;99267.97;4995697;28;20063;-80
2022/09/04 05:21:47;;;;;;;1.95;0.40;;;;;;;11.88;100.00;99261.91;4981548;28;20108;-79
2022/09/04 05:24:19;;;;;;;2.33;0.40;;;;;;;11.83;100.00;99248.41;5010472;28;20045;-78
2022/09/04 05:26:54;;;;;;;1.10;0.30;;;;;;;11.81;100.00;99221.28;4996763;28;20069;-80
2022/09/04 05:29:50;;;;;;;2.40;0.10;;;;;;;11.76;100.00;99198.03;4977471;28;20096;-78
2022/09/04 05:32:34;;;;;;;4.40;0.40;;;;;;;11.72;100.00;99180.84;4994470;28;20108;-79
2022/09/04 05:35:26;;;;;;;1.10;0.20;;;;;;;11.72;100.00;99169.44;4989340;28;20374;-78
2022/09/04 05:37:52;;;;;;;0.60;0.20;;;;;;;11.68;100.00;99176.09;4995419;28;20696;-79
2022/09/04 05:40:28;;;;;;;0.73;0.20;;;;;;;11.64;100.00;99162.44;5017461;28;20037;-78
2022/09/04 05:43:08;;;;;;;0.43;0.10;;;;;;;11.56;100.00;99173.94;4992537;28;20175;-79
2022/09/04 05:45:51;;;;;;;0.80;0.10;;;;;;;11.47;100.00;99170.53;4972394;28;20112;-79
2022/09/04 05:48:24;;;;;;;3.13;0.10;;;;;;;11.38;100.00;99161.03;4999003;28;20161;-78
2022/09/04 05:51:12;;;;;;;1.80;0.10;;;;;;;11.33;100.00;99171.34;4969109;28;20057;-79
2022/09/04 05:54:16;;;;;;;0.10;0.10;;;;;;;11.26;100.00;99169.41;4987187;28;20124;-79
2022/09/04 05:56:49;;;;;;;0.30;0.10;;;;;;;11.21;100.00;99171.78;5002748;28;20057;-80
2022/09/04 05:59:39;;;;;;;1.42;0.30;;;;;;;11.13;100.00;99179.81;5014484;28;20061;-79
2022/09/04 06:02:42;;;;;;;2.05;0.13;;;;;;;11.09;100.00;99207.59;4983839;28;20041;-77
2022/09/04 06:05:17;;;;;;;2.85;0.10;;;;;;;11.03;100.00;99217.06;4982378;28;20069;-79
2022/09/04 06:07:49;;;;;;;;;;;;;;;10.93;100.00;99222.59;4981450;28;20046;-77
2022/09/04 06:10:30;;;;;;;1.83;0.35;;;;;;;10.99;100.00;99234.31;5001910;28;19917;-77
2022/09/04 06:13:27;;;;;;;0.25;0.15;;;;;;;11.02;100.00;99242.69;4981754;28;20384;-79
2022/09/04 06:16:15;;;;;;;1.77;0.20;;;;;;;11.06;100.00;99250.25;4977463;28;20038;-80
2022/09/04 06:19:28;;;;;;;1.17;0.20;;;;;;;11.07;100.00;99252.72;5007659;28;20062;-78
2022/09/04 06:22:09;;;;;;;0.88;0.17;;;;;;;11.09;100.00;99258.66;4974891;28;20046;-78
2022/09/04 06:24:47;;;;;;;0.52;0.10;;;;;;;11.13;100.00;99275.00;4989975;28;20033;-77
2022/09/04 06:27:51;;;;;;;0.77;0.25;;;;;;;11.13;100.00;99286.41;5003565;28;20088;-77
2022/09/04 06:30:17;;;;;;;0.17;0.10;;;;;;;11.16;100.00;99290.53;5022700;28;20030;-79
2022/09/04 06:32:52;;;;;;;0.43;0.20;;;;;;;11.18;100.00;99299.09;5000034;28;20038;-78
2022/09/04 06:35:31;;;;;;;0.77;0.10;;;;;;;11.20;100.00;99315.59;5013882;28;20084;-79
2022/09/04 06:38:30;;;;;;;0.00;0.00;;;;;;;11.23;100.00;99317.06;5002383;28;20498;-78
2022/09/04 06:41:17;;;;;;;0.28;0.10;;;;;;;11.23;100.00;99314.44;5014842;28;20599;-79
2022/09/04 06:44:15;;;;;;;1.65;0.15;;;;;;;11.23;100.00;99317.91;5004171;28;20034;-80
2022/09/04 06:46:41;;;;;;;0.13;0.10;;;;;;;11.26;100.00;99330.78;4969588;28;20053;-78
2022/09/04 06:49:21;;;;;;;0.28;0.10;;;;;;;11.30;100.00;99328.59;4976338;28;20045;-80
2022/09/04 06:52:06;;;;;;;0.80;0.10;;;;;;;11.33;100.00;99325.59;4979703;28;20030;-75
2022/09/04 06:55:02;;;;;;;1.08;0.15;;;;;;;11.36;100.00;99341.13;4985745;28;20075;-79
2022/09/04 06:57:47;;;;;;;1.23;0.10;;;;;;;11.37;100.00;99342.75;5002699;28;20038;-78
2022/09/04 07:00:15;;;;;;;0.73;0.10;;;;;;;11.47;100.00;99360.22;4989008;28;20066;-80
2022/09/04 07:03:29;;;;;;;2.38;0.10;;;;;;;11.59;100.00;99361.47;4976064;28;20034;-78
2022/09/04 07:06:01;;;;;;;0.32;0.10;;;;;;;11.73;100.00;99359.03;4992910;28;20042;-79
2022/09/04 07:08:58;;;;;;;0.30;0.08;;;;;;;11.87;100.00;99368.84;4976768;28;20092;-79
2022/09/04 07:12:16;;;;;;;2.53;0.15;;;;;;;11.99;100.00;99377.16;4993757;28;20018;-78
2022/09/04 07:14:54;;;;;;;;;;;;;;;12.11;100.00;99379.41;4918360;28;20509;-79
2022/09/04 07:17:32;;;;;;;0.75;0.20;;;;;;;12.39;100.00;99382.25;5010259;28;19921;-79
2022/09/04 07:20:12;;;;;;;2.10;0.13;;;;;;;12.56;100.00;99391.84;4978805;28;20048;-77
2022/09/04 07:23:03;;;;;;;0.65;0.17;;;;;;;12.67;100.00;99395.84;4975611;28;20113;-79
2022/09/04 07:25:29;;;;;;;1.13;0.10;;;;;;;12.78;100.00;99395.41;4989720;28;20607;-79
2022/09/04 07:28:17;;;;;;;0.85;0.20;;;;;;;12.88;100.00;99403.06;4978678;28;20116;-79
2022/09/04 07:30:51;;;;;;;0.50;0.20;;;;;;;12.88;100.00;99406.53;4985692;28;20674;-79
2022/09/04 07:33:26;;;;;;;0.60;0.28;;;;;;;12.92;100.00;99417.59;4989044;28;20440;-79
2022/09/04 07:35:53;;;;;;;0.22;0.20;;;;;;;12.90;100.00;99420.44;4988272;28;20065;-83
2022/09/04 07:38:33;;;;;;;0.85;0.15;;;;;;;12.95;100.00;99424.38;5001377;28;20586;-79
2022/09/04 07:41:13;;;;;;;1.98;0.20;;;;;;;12.97;100.00;99433.78;5029565;28;20069;-77
2022/09/04 07:44:08;;;;;;;0.20;0.10;;;;;;;12.97;100.00;99440.91;5001149;28;20770;-79
2022/09/04 07:47:14;;;;;;;0.17;0.10;;;;;;;12.88;100.00;99456.91;4987027;28;20041;-80
2022/09/04 07:49:57;;;;;;;0.40;0.10;;;;;;;12.92;100.00;99462.69;4983036;28;20037;-80
2022/09/04 07:52:45;;;;;;;0.73;0.15;;;;;;;12.97;100.00;99467.44;4999923;28;20040;-80
2022/09/04 07:55:39;;;;;;;1.20;0.10;;;;;;;13.01;100.00;99476.69;4993003;28;20061;-80
2022/09/04 07:58:31;;;;;;;2.38;0.22;;;;;;;13.06;100.00;99478.78;4994399;28;20044;-79
2022/09/04 08:01:37;;;;;;;0.85;0.32;;;;;;;13.07;100.00;99483.91;4963540;28;20038;-81
2022/09/04 08:04:38;;;;;;;2.85;0.20;;;;;;;13.11;100.00;99489.63;4956451;28;20049;-80
2022/09/04 08:07:13;;;;;;;2.63;0.20;;;;;;;13.15;100.00;99497.03;5008486;28;20038;-81
2022/09/04 08:09:57;;;;;;;1.13;0.30;;;;;;;13.21;100.00;99490.19;4990050;28;20863;-86
2022/09/04 08:12:29;;;;;;;3.88;0.40;;;;;;;13.28;100.00;99485.78;5002411;28;20048;-80
2022/09/04 08:15:18;;;;;;;1.20;0.30;;;;;;;13.33;100.00;99505.66;4976500;28;20039;-81
2022/09/04 08:17:53;;;;;;;3.53;0.40;;;;;;;13.44;100.00;99501.69;4965743;28;20088;-80
2022/09/04 08:20:56;;;;;;;2.75;0.28;;;;;;;13.52;100.00;99513.03;4987390;28;20121;-80
2022/09/04 08:23:58;;;;;;;1.92;0.30;;;;;;;13.63;100.00;99518.88;4947045;28;20042;-82
2022/09/04 08:26:36;;;;;;;3.67;0.40;;;;;;;13.75;100.00;99521.84;4998540;28;20026;-81
2022/09/04 08:29:26;;;;;;;2.00;0.22;;;;;;;13.86;100.00;99525.84;4968733;28;20057;-85
2022/09/04 08:32:23;;;;;;;5.30;0.40;;;;;;;13.89;100.00;99530.78;4974151;28;20035;-80
2022/09/04 08:34:50;;;;;;;2.25;0.40;;;;;;;13.96;100.00;99537.00;4982155;28;20034;-80
2022/09/04 08:37:27;;;;;;;2.95;0.28;;;;;;;14.07;100.00;99534.84;4929137;28;20049;-82
2022/09/04 08:40:17;;;;;;;3.30;0.73;;;;;;;14.12;100.00;99527.97;4999017;28;20042;-85
2022/09/04 08:43:04;;;;;;;2.55;0.63;;;;;;;14.21;99.73;99539.25;4982777;28;20034;-83
2022/09/04 08:45:55;;;;;;;2.58;0.25;;;;;;;14.25;99.18;99545.03;4985817;28;20029;-84
2022/09/04 08:48:36;;;;;;;3.75;0.40;;;;;;;14.26;98.66;99536.88;5005066;28;20066;-85
2022/09/04 08:51:55;;;;;;;6.03;0.30;;;;;;;14.30;98.28;99539.13;5021552;28;20053;-86
2022/09/04 08:54:24;;;;;;;5.07;0.50;;;;;;;14.33;98.08;99554.72;4945080;28;20864;-86
2022/09/04 08:57:05;;;;;;;2.15;0.40;;;;;;;14.39;97.85;99557.44;4984533;28;20061;-85
2022/09/04 08:59:56;;;;;;;6.22;0.77;;;;;;;14.48;97.39;99568.72;4990811;28;20046;-84
2022/09/04 09:02:38;;;;;;;0.90;0.20;;;;;;;14.54;97.07;99566.34;4997514;28;20036;-82
2022/09/04 09:05:16;;;;;;;2.60;0.50;;;;;;;14.58;96.31;99568.41;4989856;28;20061;-84
2022/09/04 09:08:19;;;;;;;3.80;0.40;;;;;;;14.55;95.61;99583.91;5006924;28;20134;-82
2022/09/04 09:11:08;;;;;;;1.65;0.20;;;;;;;14.64;96.01;99586.25;4990653;28;20038;-86
2022/09/04 09:13:56;;;;;;;3.50;0.38;;;;;;;14.85;95.68;99584.59;5003923;28;20053;-82
2022/09/04 09:16:42;;;;;;;0.73;0.20;;;;;;;14.97;94.83;99587.53;4985311;28;20065;-81
2022/09/04 09:19:19;;;;;;;2.60;0.43;;;;;;;15.14;94.73;99600.53;5007680;28;20030;-83
2022/09/04 09:21:57;;;;;;;2.22;0.25;;;;;;;15.17;92.52;99608.16;4998791;28;20107;-85
2022/09/04 09:24:22;;;;;;;3.63;0.32;;;;;;;15.15;92.01;99607.50;4957648;28;20706;-86
2022/09/04 09:27:13;;;;;;;4.93;0.22;;;;;;;15.08;90.55;99609.31;5003015;28;20038;-80
2022/09/04 09:30:04;;;;;;;2.33;0.20;;;;;;;14.91;88.48;99606.94;4985469;28;20045;-81
2022/09/04 09:32:45;;;;;;;1.95;0.25;;;;;;;14.87;89.33;99617.13;5021002;28;20104;-85
2022/09/04 09:35:22;;;;;;;4.00;0.38;;;;;;;14.95;88.67;99615.38;5005120;28;20045;-83
2022/09/04 09:38:22;;;;;;;1.40;0.10;;;;;;;15.11;87.13;99615.06;4992458;28;20116;-86
2022/09/04 09:40:56;;;;;;;2.58;0.32;;;;;;;15.24;86.99;99626.81;4993545;28;20061;-85
2022/09/04 09:44:13;;;;;;;1.52;0.32;;;;;;;15.15;84.99;99631.47;4988931;28;20068;-82
2022/09/04 09:47:16;;;;;;;3.53;0.38;;;;;;;15.28;85.79;99638.72;4960823;28;20049;-83
2022/09/04 09:50:19;;;;;;;3.35;0.25;;;;;;;15.49;85.84;99643.16;5018542;28;20030;-80
2022/09/04 09:53:16;;;;;;;1.98;0.28;;;;;;;15.66;84.08;99644.63;4969933;28;20037;-82
2022/09/04 09:55:57;;;;;;;3.00;0.32;;;;;;;15.75;84.69;99635.47;5019393;28;20056;-83
2022/09/04 09:59:02;;;;;;;0.70;0.30;;;;;;;15.79;80.79;99639.38;5004333;28;20041;-81
2022/09/04 10:01:49;;;;;;;4.07;0.32;;;;;;;15.74;81.84;99637.31;4952919;28;21176;-81
2022/09/04 10:04:49;;;;;;;1.85;0.35;;;;;;;15.71;81.42;99637.72;5003791;28;20069;-82
2022/09/04 10:07:35;;;;;;;2.15;0.10;;;;;;;15.78;80.39;99642.25;4996312;28;20125;-83
2022/09/04 10:10:07;;;;;;;5.15;1.00;;;;;;;15.86;80.14;99639.41;4975733;28;20139;-81
2022/09/04 10:12:50;;;;;;;3.03;0.68;;;;;;;15.90;80.13;99647.81;4976428;28;20049;-80
2022/09/04 10:15:48;;;;;;;5.15;0.50;;;;;;;15.94;79.25;99635.75;4972489;28;20671;-81
2022/09/04 10:18:19;;;;;;;3.40;0.22;;;;;;;16.05;79.38;99637.88;4967566;28;20484;-81
2022/09/04 10:21:07;;;;;;;0.93;0.10;;;;;;;16.11;78.96;99641.56;4986197;28;20516;-83
2022/09/04 10:24:07;;;;;;;2.83;0.40;;;;;;;16.13;77.41;99636.88;4978429;28;20083;-81
2022/09/04 10:26:51;;;;;;;1.73;0.30;;;;;;;16.18;77.43;99650.41;5020980;28;20065;-81
2022/09/04 10:29:34;;;;;;;2.80;0.30;;;;;;;16.28;76.73;99650.00;4974637;28;20049;-82
2022/09/04 10:32:33;;;;;;;1.42;0.22;;;;;;;16.32;74.38;99645.94;4998332;28;20421;-84
2022/09/04 10:35:14;;;;;;;2.45;0.30;;;;;;;16.36;75.79;99649.00;4982360;28;20033;-78
2022/09/04 10:38:03;;;;;;;3.40;0.22;;;;;;;16.45;74.80;99646.97;4989567;28;20057;-81
2022/09/04 10:40:52;;;;;;;2.22;0.73;;;;;;;16.46;75.13;99652.13;4988117;28;20499;-82
2022/09/04 10:43:55;;;;;;;1.27;0.20;;;;;;;16.43;75.16;99665.03;4957851;28;20054;-79
2022/09/04 10:46:54;;;;;;;1.95;0.20;;;;;;;16.15;75.66;99664.13;4983486;28;20584;-81
2022/09/04 10:49:26;;;;;;;1.15;0.28;;;;;;;16.02;76.38;99654.28;4973943;28;20075;-81
2022/09/04 10:52:23;;;;;;;3.28;0.30;;;;;;;16.09;76.33;99655.09;4956353;28;20049;-81
2022/09/04 10:55:07;;;;;;;2.88;0.35;;;;;;;16.14;75.98;99659.81;5003378;28;20030;-81
2022/09/04 10:57:42;;;;;;;4.45;0.40;;;;;;;16.29;76.15;99664.19;4980214;28;20038;-81
2022/09/04 11:00:18;;;;;;;4.15;0.73;;;;;;;16.37;75.29;99669.34;5004057;28;20515;-79
2022/09/04 11:03:03;;;;;;;4.25;0.40;;;;;;;16.37;75.45;99674.66;4996898;28;20091;-81
2022/09/04 11:05:56;;;;;;;6.60;0.52;;;;;;;16.55;75.09;99663.41;4986284;28;20092;-80
2022/09/04 11:08:41;;;;;;;3.42;0.52;;;;;;;16.69;74.83;99658.88;4963637;28;20042;-81
2022/09/04 11:11:25;;;;;;;3.70;0.82;;;;;;;16.67;74.26;99658.28;5007514;28;20046;-81
2022/09/04 11:14:06;;;;;;;2.05;0.30;;;;;;;16.70;74.16;99660.56;5005921;28;20416;-82
2022/09/04 11:17:17;;;;;;;3.22;0.68;;;;;;;16.74;73.81;99660.94;5021944;28;20099;-82
2022/09/04 11:19:57;;;;;;;3.20;0.20;;;;;;;17.13;73.75;99666.53;4989687;28;20103;-83
2022/09/04 11:23:00;;;;;;;1.73;0.17;;;;;;;17.50;70.59;99665.22;5011657;28;20046;-80
2022/09/04 11:26:05;;;;;;;2.20;0.30;;;;;;;17.70;71.12;99646.44;4971718;28;20026;-82
2022/09/04 11:28:46;;;;;;;3.08;0.50;;;;;;;17.84;69.91;99652.56;4974712;28;20037;-80
2022/09/04 11:31:54;;;;;;;6.32;0.63;;;;;;;17.75;68.95;99659.19;5022909;28;20085;-80
2022/09/04 11:34:32;;;;;;;3.72;0.55;;;;;;;17.53;70.22;99670.16;4971525;28;20069;-80
2022/09/04 11:37:22;;;;;;;1.52;0.20;;;;;;;17.39;71.09;99661.34;4991919;28;20507;-82
2022/09/04 11:40:26;;;;;;;1.42;0.20;;;;;;;17.28;69.26;99663.59;4972460;28;20049;-81
2022/09/04 11:43:24;;;;;;;3.58;0.30;;;;;;;17.13;67.33;99657.69;4955750;28;20132;-80
2022/09/04 11:46:33;;;;;;;2.92;0.35;;;;;;;17.03;65.47;99682.91;4987154;28;20057;-80
2022/09/04 11:49:20;;;;;;;0.80;0.20;;;;;;;16.95;66.02;99681.28;4979744;28;20508;-80
2022/09/04 11:51:58;;;;;;;2.72;0.45;;;;;;;16.97;66.62;99679.25;5016720;28;20037;-81
2022/09/04 11:54:51;;;;;;;1.23;0.25;;;;;;;16.99;65.43;99676.38;4984847;28;20574;-81
2022/09/04 11:57:23;;;;;;;2.75;0.50;;;;;;;17.11;65.71;99674.75;4989493;28;20491;-81
2022/09/04 12:00:12;;;;;;;0.47;0.20;;;;;;;17.36;63.96;99678.59;4978790;28;20049;-82
2022/09/04 12:02:51;;;;;;;4.53;0.20;;;;;;;17.68;64.10;99661.88;4985013;28;20509;-80
2022/09/04 12:05:54;;;;;;;0.68;0.10;;;;;;;18.00;62.67;99677.19;4953767;28;20423;-79
2022/09/04 12:09:02;;;;;;;3.20;0.57;;;;;;;18.35;64.96;99684.84;4972766;28;20054;-82
2022/09/04 12:12:13;;;;;;;4.13;0.30;;;;;;;18.70;62.69;99688.94;4968106;28;20096;-79
2022/09/04 12:15:16;;;;;;;4.07;0.30;;;;;;;18.78;62.32;99679.81;5004810;28;20026;-80
2022/09/04 12:18:36;;;;;;;2.53;0.28;;;;;;;18.84;61.60;99684.31;4989645;28;20025;-81
2022/09/04 12:21:20;;;;;;;3.85;0.25;;;;;;;18.87;61.56;99680.38;4994104;28;20034;-81
2022/09/04 12:23:55;;;;;;;1.75;0.15;;;;;;;18.74;59.50;99692.00;5001340;28;20057;-81
2022/09/04 12:26:28;;;;;;;1.92;0.17;;;;;;;18.63;60.65;99697.03;4972690;28;20045;-82
2022/09/04 12:29:39;;;;;;;3.10;0.45;;;;;;;18.67;60.34;99694.72;4979936;28;20041;-82
2022/09/04 12:32:41;;;;;;;2.65;0.32;;;;;;;18.74;59.28;99692.00;5000336;28;20729;-81
2022/09/04 12:35:15;;;;;;;2.90;0.63;;;;;;;18.76;60.41;99687.25;4999784;28;20034;-83
2022/09/04 12:38:12;;;;;;;1.58;0.20;;;;;;;18.76;59.50;99692.63;4990105;28;20034;-80
2022/09/04 12:40:50;;;;;;;2.35;0.35;;;;;;;18.84;61.31;99687.81;4973359;28;20041;-81
2022/09/04 12:43:40;;;;;;;1.02;0.30;;;;;;;18.62;60.83;99686.53;4989811;28;20049;-81
2022/09/04 12:46:30;;;;;;;2.88;0.22;;;;;;;18.63;61.79;99678.31;5000169;28;20488;-80
2022/09/04 12:49:15;;;;;;;4.13;0.47;;;;;;;18.66;62.22;99683.22;4985713;28;20057;-81
2022/09/04 12:51:55;;;;;;;2.78;0.38;;;;;;;18.67;62.23;99681.34;4985707;28;20040;-84
2022/09/04 12:54:42;;;;;;;3.05;0.45;;;;;;;18.57;62.97;99674.63;5001175;28;20519;-78
2022/09/04 12:57:31;;;;;;;2.08;0.32;;;;;;;18.62;63.00;99673.97;4988254;28;20047;-82
2022/09/04 13:00:09;;;;;;;5.05;0.43;;;;;;;18.45;63.72;99679.84;5006633;28;20030;-79
2022/09/04 13:02:43;;;;;;;3.35;0.28;;;;;;;18.53;64.69;99684.13;4972827;28;20034;-83